Aérodrome :
LOGIN :

S'inscrire | Disclaimer

   EN    FR    IT 

 










Légende :    VFR   VFR Marginal   IFR   IFR Intensif   IFR Très Intensif
Visi : 
Plafond : 
>= 8 km
>= 3000ft
5 à 8 km
1000 à 3000 ft
1500m à 5 km
500 à 1000 ft
800 à 1500m
200 à 500 ft
< 800m
< 200 ft
Symboles :   Orages  Brouillard  Fortes neiges  Fortes précipitations  Vent > 20 kt
SIGMETs :   Divers  Orages  Givrage  Turbulence  Onde Orograph.  Cendres Volcan.







- Altitude de l'aérodrome : 12 ft
- Code IATA : NCE
- Voir les cartes d'approche


LFMN - Nice

DERNIER METAR :
  • 240000Z 36004KT 9999 FEW013 BKN160 25/21 Q1011 NOSIG

METARs EXPIRÉS :
  • 232330Z 05004KT 010V100 9999 FEW013 BKN160 25/22 Q1011 NOSIG
  • 232300Z 10006KT 9999 FEW013 BKN150 BKN210 25/21 Q1012 NOSIG
  • 232230Z 12006KT 9999 FEW013 BKN150 BKN210 25/22 Q1012 NOSIG
  • 232200Z 09008KT 9999 FEW014 BKN150 BKN210 25/22 Q1012 NOSIG

TAF TAF LFMN
Valide du 23 à 21h jusqu'au 25 à 03h UTC


232000Z 2321/2503 08015KT 9999 FEW010 BKN120
TEMPO 2400/2407 34006KT
BECMG 2407/2409 24020G30KT
TEMPO 2412/2416 26025G40KT
BECMG 2417/2419 09015KT
BECMG 2423/2501 34010KT
ATIS : +33 4 93 17 21 16
Pas de NOTAMs connus pour ce terrain.



MET'MAP, la Météo Aéronautique d'un coup d'oeil ! - Copyright ORBIFLY Décembre 2007 - Disclaimer

ORBIFLY MET'MAP TEAM :

Programmation & Développement : Alexandra Zaïnal
Conception & Développement : Baudouin d'Aumeries
Co-Programmation & Développement : Marc-Olivier Méhu
Soutien technique & logistique : Manuel Goepfert

Contact : metmap@orbifly.com




SOURCES & CREDITS :

   NOAA